createdAt,value
2023-01-11T00:00:13.747Z,991.16
2023-01-11T00:01:13.751Z,991.18
2023-01-11T00:02:13.806Z,991.19
2023-01-11T00:03:13.747Z,991.17
2023-01-11T00:04:13.798Z,991.12
2023-01-11T00:05:13.688Z,991.11
2023-01-11T00:06:13.713Z,991.04
2023-01-11T00:07:13.667Z,991.01
2023-01-11T00:08:13.662Z,991.04
2023-01-11T00:09:13.663Z,991.05
2023-01-11T00:10:13.664Z,991.05
2023-01-11T00:11:13.635Z,991.09
2023-01-11T00:12:13.635Z,991.12
2023-01-11T00:13:13.606Z,991.12
2023-01-11T00:14:13.608Z,991.11
2023-01-11T00:15:13.598Z,991.11
2023-01-11T00:16:13.652Z,991.08
2023-01-11T00:17:13.600Z,991.07
2023-01-11T00:18:13.576Z,991.04
2023-01-11T00:19:13.555Z,991.06
2023-01-11T00:20:13.574Z,991.04
2023-01-11T00:21:13.526Z,990.99
2023-01-11T00:22:13.547Z,990.96
2023-01-11T00:23:13.515Z,991.00
2023-01-11T00:24:13.516Z,990.96
2023-01-11T00:25:13.531Z,990.94
2023-01-11T00:26:13.505Z,990.97
2023-01-11T00:27:13.455Z,990.95
2023-01-11T00:28:13.455Z,990.94
2023-01-11T00:29:13.584Z,990.93
2023-01-11T00:30:13.445Z,990.96
2023-01-11T00:31:13.483Z,990.95
2023-01-11T00:32:13.435Z,990.92
2023-01-11T00:33:13.404Z,990.95
2023-01-11T00:34:13.435Z,990.92
2023-01-11T00:35:13.386Z,990.94
2023-01-11T00:36:13.433Z,990.99
2023-01-11T00:37:13.388Z,990.96
2023-01-11T00:38:13.383Z,990.95
2023-01-11T00:39:13.339Z,990.91
2023-01-11T00:40:13.346Z,990.91
2023-01-11T00:41:13.363Z,990.85
2023-01-11T00:42:13.340Z,990.86
2023-01-11T00:43:13.284Z,990.88
2023-01-11T00:44:13.314Z,990.88
2023-01-11T00:45:13.277Z,990.86
2023-01-11T00:46:13.301Z,990.86
2023-01-11T00:47:13.247Z,990.82
2023-01-11T00:48:13.287Z,990.75
2023-01-11T00:49:13.264Z,990.73
2023-01-11T00:50:13.243Z,990.73
2023-01-11T00:51:13.220Z,990.77
2023-01-11T00:52:13.218Z,990.82
2023-01-11T00:53:13.208Z,990.73
2023-01-11T00:54:13.197Z,990.78
2023-01-11T00:55:14.160Z,990.85
2023-01-11T00:56:13.175Z,990.72
2023-01-11T00:57:13.163Z,990.78
2023-01-11T00:58:13.156Z,990.73
2023-01-11T00:59:13.127Z,990.78
2023-01-11T01:00:13.149Z,990.77
2023-01-11T01:01:13.168Z,990.71
2023-01-11T01:02:13.132Z,990.74
2023-01-11T01:03:13.085Z,990.70
2023-01-11T01:04:13.104Z,990.72
2023-01-11T01:05:13.097Z,990.70
2023-01-11T01:06:13.077Z,990.67
2023-01-11T01:07:13.047Z,990.64
2023-01-11T01:08:13.069Z,990.66
2023-01-11T01:09:13.020Z,990.66
2023-01-11T01:10:13.058Z,990.62
2023-01-11T01:11:12.998Z,990.63
2023-01-11T01:12:13.008Z,990.63
2023-01-11T01:13:12.988Z,990.67
2023-01-11T01:14:12.997Z,990.67
2023-01-11T01:15:12.989Z,990.67
2023-01-11T01:16:13.026Z,990.63
2023-01-11T01:17:12.952Z,990.61
2023-01-11T01:18:12.987Z,990.57
2023-01-11T01:19:12.928Z,990.58
2023-01-11T01:20:13.566Z,990.59
2023-01-11T01:21:12.916Z,990.57
2023-01-11T01:22:12.977Z,990.60
2023-01-11T01:23:12.887Z,990.56
2023-01-11T01:24:12.908Z,990.55
2023-01-11T01:25:12.879Z,990.50
2023-01-11T01:26:12.875Z,990.51
2023-01-11T01:27:12.857Z,990.52
2023-01-11T01:28:12.860Z,990.55
2023-01-11T01:29:12.831Z,990.48
2023-01-11T01:30:12.874Z,990.46
2023-01-11T01:31:12.852Z,990.53
2023-01-11T01:32:12.818Z,990.47
2023-01-11T01:33:12.779Z,990.46
2023-01-11T01:34:12.788Z,990.42
2023-01-11T01:35:12.793Z,990.47
2023-01-11T01:36:12.796Z,990.39
2023-01-11T01:37:12.989Z,990.44
2023-01-11T01:38:12.746Z,990.42
2023-01-11T01:39:12.717Z,990.38
2023-01-11T01:40:12.719Z,990.34
2023-01-11T01:41:12.721Z,990.34
2023-01-11T01:42:12.720Z,990.32
2023-01-11T01:43:12.691Z,990.39
2023-01-11T01:44:12.688Z,990.36
2023-01-11T01:45:12.659Z,990.39
2023-01-11T01:46:12.707Z,990.36
2023-01-11T01:47:12.681Z,990.39
2023-01-11T01:48:12.645Z,990.38
2023-01-11T01:49:12.627Z,990.43
2023-01-11T01:50:12.640Z,990.35
2023-01-11T01:51:12.600Z,990.31
2023-01-11T01:52:12.630Z,990.35
2023-01-11T01:53:12.569Z,990.32
2023-01-11T01:54:12.570Z,990.29
2023-01-11T01:55:12.554Z,990.29
2023-01-11T01:56:12.567Z,990.27
2023-01-11T01:57:12.534Z,990.31
2023-01-11T01:58:12.576Z,990.25
2023-01-11T01:59:12.507Z,990.24
2023-01-11T02:00:12.529Z,990.26
2023-01-11T02:01:12.490Z,990.18
2023-01-11T02:02:12.519Z,990.17
2023-01-11T02:03:12.498Z,990.19
2023-01-11T02:04:12.509Z,990.17
2023-01-11T02:05:12.494Z,990.17
2023-01-11T02:06:12.465Z,990.18
2023-01-11T02:07:12.449Z,990.19
2023-01-11T02:08:12.429Z,990.20
2023-01-11T02:09:12.415Z,990.21
2023-01-11T02:10:12.445Z,990.26
2023-01-11T02:11:12.389Z,990.23
2023-01-11T02:12:12.408Z,990.24
2023-01-11T02:13:12.391Z,990.24
2023-01-11T02:14:12.383Z,990.21
2023-01-11T02:15:12.349Z,990.15
2023-01-11T02:16:12.444Z,990.17
2023-01-11T02:17:12.338Z,990.16
2023-01-11T02:18:12.337Z,990.13
2023-01-11T02:19:12.320Z,990.14
2023-01-11T02:20:12.307Z,990.16
2023-01-11T02:21:12.297Z,990.11
2023-01-11T02:22:12.297Z,990.16
2023-01-11T02:23:12.267Z,990.11
2023-01-11T02:24:12.281Z,990.12
2023-01-11T02:25:12.257Z,990.10
2023-01-11T02:26:12.310Z,990.15
2023-01-11T02:27:12.239Z,990.10
2023-01-11T02:28:12.244Z,990.12
2023-01-11T02:29:12.204Z,990.05
2023-01-11T02:30:12.265Z,990.03
2023-01-11T02:31:12.239Z,990.05
2023-01-11T02:32:12.197Z,990.01
2023-01-11T02:33:12.156Z,989.97
2023-01-11T02:34:12.169Z,990.00
2023-01-11T02:35:12.138Z,989.94
2023-01-11T02:36:12.168Z,989.92
2023-01-11T02:37:12.127Z,989.93
2023-01-11T02:38:12.131Z,989.93
2023-01-11T02:39:12.110Z,989.93
2023-01-11T02:40:12.117Z,989.91
2023-01-11T02:41:12.091Z,989.93
2023-01-11T02:42:12.100Z,989.92
2023-01-11T02:43:12.069Z,989.90
2023-01-11T02:44:12.079Z,989.90
2023-01-11T02:45:12.061Z,989.89
2023-01-11T02:46:12.087Z,989.93
2023-01-11T02:47:12.040Z,989.96
2023-01-11T02:48:12.025Z,989.90
2023-01-11T02:49:12.029Z,989.86
2023-01-11T02:50:12.018Z,989.87
2023-01-11T02:51:11.978Z,989.82
2023-01-11T02:52:12.630Z,989.85
2023-01-11T02:53:11.948Z,989.81
2023-01-11T02:54:11.960Z,989.81
2023-01-11T02:55:11.980Z,989.78
2023-01-11T02:56:11.974Z,989.77
2023-01-11T02:57:11.911Z,989.79
2023-01-11T02:58:11.945Z,989.73
2023-01-11T02:59:11.921Z,989.74
2023-01-11T03:00:11.913Z,989.73
2023-01-11T03:01:11.912Z,989.68
2023-01-11T03:02:11.912Z,989.67
2023-01-11T03:03:11.902Z,989.70
2023-01-11T03:04:11.860Z,989.66
2023-01-11T03:05:11.829Z,989.65
2023-01-11T03:06:11.852Z,989.66
2023-01-11T03:07:11.830Z,989.61
2023-01-11T03:08:11.831Z,989.66
2023-01-11T03:09:11.808Z,989.67
2023-01-11T03:10:11.799Z,989.65
2023-01-11T03:11:11.778Z,989.64
2023-01-11T03:12:11.793Z,989.75
2023-01-11T03:13:11.763Z,989.69
2023-01-11T03:14:11.775Z,989.62
2023-01-11T03:15:11.733Z,989.65
2023-01-11T03:16:11.754Z,989.62
2023-01-11T03:17:11.709Z,989.63
2023-01-11T03:18:11.711Z,989.67
2023-01-11T03:19:11.699Z,989.65
2023-01-11T03:20:11.711Z,989.57
2023-01-11T03:21:11.691Z,989.55
2023-01-11T03:22:11.691Z,989.51
2023-01-11T03:23:11.657Z,989.52
2023-01-11T03:24:11.660Z,989.56
2023-01-11T03:25:11.662Z,989.51
2023-01-11T03:26:11.641Z,989.52
2023-01-11T03:27:11.628Z,989.50
2023-01-11T03:28:11.621Z,989.58
2023-01-11T03:29:11.582Z,989.52
2023-01-11T03:30:11.607Z,989.48
2023-01-11T03:31:11.598Z,989.54
2023-01-11T03:32:11.579Z,989.50
2023-01-11T03:33:11.560Z,989.49
2023-01-11T03:34:11.551Z,989.48
2023-01-11T03:35:11.569Z,989.44
2023-01-11T03:36:11.552Z,989.49
2023-01-11T03:37:11.519Z,989.48
2023-01-11T03:38:11.575Z,989.48
2023-01-11T03:39:11.502Z,989.44
2023-01-11T03:40:11.538Z,989.37
2023-01-11T03:41:11.518Z,989.37
2023-01-11T03:42:11.513Z,989.36
2023-01-11T03:43:11.508Z,989.41
2023-01-11T03:44:11.451Z,989.42
2023-01-11T03:45:11.442Z,989.39
2023-01-11T03:46:11.449Z,989.40
2023-01-11T03:47:11.429Z,989.40
2023-01-11T03:48:11.410Z,989.39
2023-01-11T03:49:11.389Z,989.34
2023-01-11T03:50:11.421Z,989.31
2023-01-11T03:51:11.374Z,989.29
2023-01-11T03:52:11.402Z,989.31
2023-01-11T03:53:11.353Z,989.31
2023-01-11T03:54:11.373Z,989.28
2023-01-11T03:55:11.337Z,989.26
2023-01-11T03:56:11.353Z,989.30
2023-01-11T03:57:11.324Z,989.23
2023-01-11T03:58:11.351Z,989.22
2023-01-11T03:59:11.321Z,989.21
2023-01-11T04:00:11.312Z,989.18
2023-01-11T04:01:11.379Z,989.19
2023-01-11T04:02:11.281Z,989.21
2023-01-11T04:03:11.249Z,989.21
2023-01-11T04:04:11.267Z,989.17
2023-01-11T04:05:11.250Z,989.18
2023-01-11T04:06:11.256Z,989.16
2023-01-11T04:07:11.253Z,989.15
2023-01-11T04:09:07.200Z,989.14
2023-01-11T04:10:07.168Z,989.12
2023-01-11T04:11:07.162Z,989.08
2023-01-11T04:12:07.165Z,989.12
2023-01-11T04:13:07.157Z,989.17
2023-01-11T04:14:07.156Z,989.12
2023-01-11T04:15:07.144Z,989.11
2023-01-11T04:16:07.124Z,989.13
2023-01-11T04:17:07.129Z,989.08
2023-01-11T04:18:07.161Z,989.06
2023-01-11T04:19:07.116Z,989.06
2023-01-11T04:20:07.066Z,989.11
2023-01-11T04:21:07.075Z,989.08
2023-01-11T04:22:07.048Z,989.06
2023-01-11T04:23:07.252Z,989.08
2023-01-11T04:24:07.019Z,989.11
2023-01-11T04:25:07.025Z,989.04
2023-01-11T04:26:07.037Z,989.02
2023-01-11T04:27:06.984Z,989.09
2023-01-11T04:28:07.000Z,989.07
2023-01-11T04:29:07.031Z,989.00
2023-01-11T04:30:06.985Z,988.96
2023-01-11T04:31:07.124Z,988.91
2023-01-11T04:32:06.986Z,989.02
2023-01-11T04:33:06.937Z,988.92
2023-01-11T04:34:06.954Z,988.96
2023-01-11T04:35:06.941Z,988.90
2023-01-11T04:36:06.936Z,988.95
2023-01-11T04:37:06.907Z,988.91
2023-01-11T04:38:06.937Z,988.92
2023-01-11T04:39:06.896Z,988.89
2023-01-11T04:40:06.901Z,988.87
2023-01-11T04:41:06.867Z,988.87
2023-01-11T04:42:06.904Z,988.82
2023-01-11T04:43:06.827Z,988.81
2023-01-11T04:44:06.843Z,988.85
2023-01-11T04:45:06.838Z,988.79
2023-01-11T04:46:06.919Z,988.81
2023-01-11T04:47:06.804Z,988.83
2023-01-11T04:48:06.806Z,988.77
2023-01-11T04:49:06.844Z,988.81
2023-01-11T04:50:06.844Z,988.80
2023-01-11T04:51:06.781Z,988.72
2023-01-11T04:52:06.755Z,988.73
2023-01-11T04:53:06.734Z,988.75
2023-01-11T04:54:06.739Z,988.78
2023-01-11T04:55:06.707Z,988.76
2023-01-11T04:56:06.733Z,988.74
2023-01-11T04:57:06.686Z,988.72
2023-01-11T04:58:07.841Z,988.73
2023-01-11T04:59:06.667Z,988.68
2023-01-11T05:00:06.691Z,988.65
2023-01-11T05:01:06.761Z,988.63
2023-01-11T05:02:06.669Z,988.68
2023-01-11T05:03:06.707Z,988.68
2023-01-11T05:04:06.740Z,988.63
2023-01-11T05:05:06.628Z,988.65
2023-01-11T05:06:06.647Z,988.63
2023-01-11T05:07:06.597Z,988.58
2023-01-11T05:08:06.590Z,988.56
2023-01-11T05:09:06.612Z,988.56
2023-01-11T05:10:06.602Z,988.52
2023-01-11T05:11:06.553Z,988.54
2023-01-11T05:12:06.578Z,988.52
2023-01-11T05:13:06.558Z,988.56
2023-01-11T05:14:06.586Z,988.56
2023-01-11T05:15:06.538Z,988.56
2023-01-11T05:16:06.562Z,988.61
2023-01-11T05:17:06.524Z,988.54
2023-01-11T05:18:06.506Z,988.53
2023-01-11T05:19:06.496Z,988.52
2023-01-11T05:20:06.498Z,988.51
2023-01-11T05:21:06.466Z,988.51
2023-01-11T05:22:06.485Z,988.45
2023-01-11T05:23:06.464Z,988.43
2023-01-11T05:24:06.480Z,988.45
2023-01-11T05:25:06.419Z,988.43
2023-01-11T05:26:06.408Z,988.43
2023-01-11T05:27:06.373Z,988.44
2023-01-11T05:28:06.407Z,988.43
2023-01-11T05:29:06.397Z,988.43
2023-01-11T05:30:06.431Z,988.38
2023-01-11T05:31:06.353Z,988.38
2023-01-11T05:32:06.376Z,988.39
2023-01-11T05:33:06.321Z,988.36
2023-01-11T05:34:06.359Z,988.35
2023-01-11T05:35:06.304Z,988.34
2023-01-11T05:36:06.325Z,988.32
2023-01-11T05:37:06.306Z,988.35
2023-01-11T05:38:06.301Z,988.35
2023-01-11T05:39:06.271Z,988.35
2023-01-11T05:40:06.294Z,988.39
2023-01-11T05:41:06.266Z,988.37
2023-01-11T05:42:06.267Z,988.34
2023-01-11T05:43:06.243Z,988.29
2023-01-11T05:44:06.257Z,988.30
2023-01-11T05:45:06.219Z,988.31
2023-01-11T05:46:06.240Z,988.30
2023-01-11T05:47:06.205Z,988.33
2023-01-11T05:48:06.226Z,988.32
2023-01-11T05:49:06.166Z,988.29
2023-01-11T05:50:06.182Z,988.29
2023-01-11T05:51:06.195Z,988.26
2023-01-11T05:52:06.159Z,988.26
2023-01-11T05:53:06.115Z,988.24
2023-01-11T05:54:06.145Z,988.21
2023-01-11T05:55:06.164Z,988.24
2023-01-11T05:56:06.136Z,988.20
2023-01-11T05:57:06.089Z,988.22
2023-01-11T05:58:06.114Z,988.24
2023-01-11T05:59:06.135Z,988.19
2023-01-11T06:00:06.075Z,988.19
2023-01-11T06:01:06.048Z,988.16
2023-01-11T06:02:06.142Z,988.14
2023-01-11T06:03:06.052Z,988.12
2023-01-11T06:04:06.088Z,988.15
2023-01-11T06:05:06.005Z,988.17
2023-01-11T06:06:06.023Z,988.15
2023-01-11T06:07:05.985Z,988.18
2023-01-11T06:08:06.005Z,988.17
2023-01-11T06:09:05.989Z,988.15
2023-01-11T06:10:05.966Z,988.23
2023-01-11T06:11:05.934Z,988.21
2023-01-11T06:12:05.953Z,988.21
2023-01-11T06:13:05.937Z,988.20
2023-01-11T06:14:05.984Z,988.18
2023-01-11T06:15:05.918Z,988.18
2023-01-11T06:16:05.913Z,988.19
2023-01-11T06:17:05.899Z,988.19
2023-01-11T06:18:05.896Z,988.17
2023-01-11T06:19:05.898Z,988.12
2023-01-11T06:20:05.898Z,988.02
2023-01-11T06:21:05.836Z,987.99
2023-01-11T06:22:05.874Z,988.03
2023-01-11T06:23:05.815Z,988.08
2023-01-11T06:24:05.887Z,988.04
2023-01-11T06:25:05.817Z,988.05
2023-01-11T06:26:05.843Z,988.09
2023-01-11T06:27:05.796Z,987.99
2023-01-11T06:28:05.822Z,987.97
2023-01-11T06:29:05.789Z,987.95
2023-01-11T06:30:05.948Z,987.96
2023-01-11T06:31:05.827Z,987.90
2023-01-11T06:32:05.760Z,987.89
2023-01-11T06:33:05.747Z,987.87
2023-01-11T06:34:05.725Z,987.88
2023-01-11T06:35:05.748Z,987.85
2023-01-11T06:36:05.777Z,987.90
2023-01-11T06:37:05.697Z,987.94
2023-01-11T06:38:05.697Z,987.90
2023-01-11T06:39:05.688Z,987.87
2023-01-11T06:40:05.711Z,987.90
2023-01-11T06:41:05.655Z,987.89
2023-01-11T06:42:06.332Z,987.90
2023-01-11T06:43:05.658Z,987.89
2023-01-11T06:44:05.688Z,987.90
2023-01-11T06:45:05.640Z,987.90
2023-01-11T06:46:05.749Z,987.88
2023-01-11T06:47:05.586Z,987.89
2023-01-11T06:48:05.585Z,987.89
2023-01-11T06:49:05.582Z,987.84
2023-01-11T06:50:05.571Z,987.86
2023-01-11T06:51:05.576Z,987.77
2023-01-11T06:52:05.640Z,987.80
2023-01-11T06:53:05.532Z,987.81
2023-01-11T06:54:05.558Z,987.73
2023-01-11T06:55:05.529Z,987.78
2023-01-11T06:56:05.572Z,987.72
2023-01-11T06:57:05.539Z,987.73
2023-01-11T06:58:05.527Z,987.70
2023-01-11T06:59:05.469Z,987.75
2023-01-11T07:00:05.473Z,987.74
2023-01-11T07:01:05.504Z,987.75
2023-01-11T07:02:05.470Z,987.73
2023-01-11T07:03:05.426Z,987.79
2023-01-11T07:04:05.433Z,987.71
2023-01-11T07:05:05.461Z,987.72
2023-01-11T07:06:05.434Z,987.70
2023-01-11T07:07:05.395Z,987.68
2023-01-11T07:08:05.395Z,987.68
2023-01-11T07:09:05.367Z,987.66
2023-01-11T07:10:05.374Z,987.72
2023-01-11T07:11:05.417Z,987.67
2023-01-11T07:12:05.367Z,987.70
2023-01-11T07:13:05.338Z,987.70
2023-01-11T07:14:05.350Z,987.69
2023-01-11T07:15:05.330Z,987.75
2023-01-11T07:16:05.362Z,987.69
2023-01-11T07:17:05.310Z,987.63
2023-01-11T07:18:05.287Z,987.65
2023-01-11T07:19:05.302Z,987.65
2023-01-11T07:20:05.280Z,987.68
2023-01-11T07:21:06.915Z,987.63
2023-01-11T07:22:05.266Z,987.67
2023-01-11T07:23:05.230Z,987.63
2023-01-11T07:24:05.234Z,987.59
2023-01-11T07:25:05.210Z,987.63
2023-01-11T07:26:05.305Z,987.64
2023-01-11T07:27:05.191Z,987.65
2023-01-11T07:28:05.199Z,987.60
2023-01-11T07:29:05.201Z,987.55
2023-01-11T07:30:05.180Z,987.56
2023-01-11T07:31:05.215Z,987.55
2023-01-11T07:32:05.182Z,987.59
2023-01-11T07:33:05.075Z,987.54
2023-01-11T07:34:05.077Z,987.57
2023-01-11T07:35:05.736Z,987.56
2023-01-11T07:36:05.057Z,987.56
2023-01-11T07:37:05.070Z,987.55
2023-01-11T07:38:05.068Z,987.50
2023-01-11T07:39:05.049Z,987.52
2023-01-11T07:40:05.213Z,987.52
2023-01-11T07:41:05.091Z,987.55
2023-01-11T07:42:05.072Z,987.54
2023-01-11T07:43:05.218Z,987.56
2023-01-11T07:44:06.036Z,987.55
2023-01-11T07:45:04.999Z,987.54
2023-01-11T07:46:05.186Z,987.48
2023-01-11T07:47:05.136Z,987.53
2023-01-11T07:48:05.031Z,987.55
2023-01-11T07:49:04.995Z,987.55
2023-01-11T07:50:05.031Z,987.50
2023-01-11T07:51:04.958Z,987.55
2023-01-11T07:52:04.939Z,987.56
2023-01-11T07:53:04.959Z,987.55
2023-01-11T07:54:04.940Z,987.57
2023-01-11T07:55:04.944Z,987.55
2023-01-11T07:56:04.925Z,987.50
2023-01-11T07:57:04.935Z,987.55
2023-01-11T07:58:04.906Z,987.54
2023-01-11T07:59:05.529Z,987.53
2023-01-11T08:00:04.917Z,987.53
2023-01-11T08:01:05.201Z,987.52
2023-01-11T08:02:04.883Z,987.56
2023-01-11T08:03:04.962Z,987.51
2023-01-11T08:04:04.829Z,987.50
2023-01-11T08:05:04.841Z,987.50
2023-01-11T08:06:04.838Z,987.47
2023-01-11T08:07:04.804Z,987.54
2023-01-11T08:08:04.892Z,987.48
2023-01-11T08:09:04.744Z,987.54
2023-01-11T08:10:04.904Z,987.47
2023-01-11T08:11:05.617Z,987.46
2023-01-11T08:12:04.780Z,987.46
2023-01-11T08:13:04.731Z,987.52
2023-01-11T08:14:04.716Z,987.43
2023-01-11T08:15:04.692Z,987.43
2023-01-11T08:16:04.703Z,987.49
2023-01-11T08:17:04.624Z,987.42
2023-01-11T08:18:04.703Z,987.44
2023-01-11T08:19:04.634Z,987.49
2023-01-11T08:20:04.640Z,987.51
2023-01-11T08:21:04.620Z,987.48
2023-01-11T08:22:04.613Z,987.50
2023-01-11T08:23:04.600Z,987.46
2023-01-11T08:24:04.591Z,987.46
2023-01-11T08:25:04.575Z,987.44
2023-01-11T08:26:04.571Z,987.42
2023-01-11T08:27:04.673Z,987.43
2023-01-11T08:28:04.558Z,987.42
2023-01-11T08:29:04.517Z,987.43
2023-01-11T08:30:04.550Z,987.45
2023-01-11T08:31:04.524Z,987.40
2023-01-11T08:32:04.512Z,987.42
2023-01-11T08:33:04.492Z,987.43
2023-01-11T08:34:04.483Z,987.43
2023-01-11T08:35:04.459Z,987.42
2023-01-11T08:36:04.429Z,987.40
2023-01-11T08:37:04.452Z,987.38
2023-01-11T08:38:04.468Z,987.35
2023-01-11T08:39:04.403Z,987.38
2023-01-11T08:40:04.409Z,987.41
2023-01-11T08:41:04.423Z,987.33
2023-01-11T08:42:04.447Z,987.37
2023-01-11T08:43:04.390Z,987.37
2023-01-11T08:44:04.380Z,987.37
2023-01-11T08:45:04.372Z,987.42
2023-01-11T08:46:04.335Z,987.32
2023-01-11T08:47:05.291Z,987.39
2023-01-11T08:48:04.342Z,987.31
2023-01-11T08:49:04.326Z,987.33
2023-01-11T08:50:04.716Z,987.31
2023-01-11T08:51:04.289Z,987.34
2023-01-11T08:52:04.278Z,987.33
2023-01-11T08:53:04.290Z,987.31
2023-01-11T08:54:04.290Z,987.36
2023-01-11T08:55:04.263Z,987.31
2023-01-11T08:56:04.299Z,987.27
2023-01-11T08:57:04.243Z,987.27
2023-01-11T08:58:04.207Z,987.32
2023-01-11T08:59:04.232Z,987.28
2023-01-11T09:00:04.216Z,987.35
2023-01-11T09:01:04.187Z,987.31
2023-01-11T09:02:04.209Z,987.38
2023-01-11T09:03:04.270Z,987.37
2023-01-11T09:04:12.507Z,987.38
2023-01-11T09:05:05.150Z,987.38
2023-01-11T09:06:04.142Z,987.38
2023-01-11T09:07:04.132Z,987.35
2023-01-11T09:08:04.095Z,987.36
2023-01-11T09:10:00.892Z,987.37
2023-01-11T09:11:00.826Z,987.34
2023-01-11T09:12:00.876Z,987.42
2023-01-11T09:13:00.808Z,987.39
2023-01-11T09:14:00.785Z,987.38
2023-01-11T09:15:00.788Z,987.36
2023-01-11T09:16:00.803Z,987.34
2023-01-11T09:17:01.304Z,987.35
2023-01-11T09:18:00.742Z,987.32
2023-01-11T09:19:00.752Z,987.32
2023-01-11T09:20:00.728Z,987.34
2023-01-11T09:21:00.726Z,987.30
2023-01-11T09:22:00.776Z,987.40
2023-01-11T09:23:00.708Z,987.32
2023-01-11T09:24:00.694Z,987.30
2023-01-11T09:25:00.699Z,987.32
2023-01-11T09:26:00.756Z,987.30
2023-01-11T09:27:00.917Z,987.30
2023-01-11T09:28:00.659Z,987.30
2023-01-11T09:29:00.692Z,987.32
2023-01-11T09:30:00.627Z,987.31
2023-01-11T09:31:00.645Z,987.33
2023-01-11T09:32:00.593Z,987.34
2023-01-11T09:33:00.602Z,987.30
2023-01-11T09:34:00.659Z,987.33
2023-01-11T09:35:00.615Z,987.36
2023-01-11T09:36:01.530Z,987.37
2023-01-11T09:37:01.216Z,987.40
2023-01-11T09:38:00.538Z,987.34
2023-01-11T09:39:00.557Z,987.34
2023-01-11T09:40:00.570Z,987.34
2023-01-11T09:41:00.527Z,987.34
2023-01-11T09:42:00.551Z,987.34
2023-01-11T09:43:00.500Z,987.39
2023-01-11T09:44:00.493Z,987.35
2023-01-11T09:45:00.509Z,987.37
2023-01-11T09:46:00.470Z,987.41
2023-01-11T09:47:00.470Z,987.38
2023-01-11T09:48:00.467Z,987.36
2023-01-11T09:49:00.537Z,987.33
2023-01-11T09:50:00.426Z,987.41
2023-01-11T09:51:00.454Z,987.39
2023-01-11T09:52:00.390Z,987.31
2023-01-11T09:53:00.393Z,987.29
2023-01-11T09:54:00.388Z,987.28
2023-01-11T09:55:00.788Z,987.25
2023-01-11T09:56:00.431Z,987.23
2023-01-11T09:57:00.379Z,987.20
2023-01-11T09:58:00.337Z,987.15
2023-01-11T09:59:00.345Z,987.14
2023-01-11T10:00:00.344Z,987.12
2023-01-11T10:01:01.559Z,987.13
2023-01-11T10:02:00.362Z,987.09
2023-01-11T10:03:00.318Z,987.12
2023-01-11T10:04:00.269Z,987.10
2023-01-11T10:05:01.313Z,987.08
2023-01-11T10:06:00.250Z,987.05
2023-01-11T10:07:00.261Z,987.08
2023-01-11T10:14:04.738Z,986.99
2023-01-11T10:18:22.775Z,987.01
2023-01-11T10:18:33.920Z,987.04
2023-01-11T10:18:34.071Z,987.01
2023-01-11T10:18:40.980Z,987.00
2023-01-11T10:20:01.144Z,987.04
2023-01-11T10:21:00.144Z,987.07
2023-01-11T10:22:00.148Z,987.00
2023-01-11T10:23:00.096Z,986.98
2023-01-11T10:24:00.069Z,987.03
2023-01-11T10:25:00.090Z,987.03
2023-01-11T10:26:00.092Z,987.02
2023-01-11T10:27:00.420Z,987.05
2023-01-11T10:28:00.057Z,987.00
2023-01-11T10:29:00.030Z,987.02
2023-01-11T10:30:00.024Z,987.00
2023-01-11T10:31:00.007Z,986.94
2023-01-11T10:31:59.993Z,986.98
2023-01-11T10:33:00.011Z,986.98
2023-01-11T10:33:59.958Z,986.96
2023-01-11T10:35:00.147Z,986.94
2023-01-11T10:35:59.963Z,987.04
2023-01-11T10:36:59.963Z,987.01
2023-01-11T10:38:00.268Z,987.05
2023-01-11T10:38:59.960Z,987.01
2023-01-11T10:39:59.900Z,986.98
2023-01-11T10:40:59.907Z,986.98
2023-01-11T10:41:59.881Z,986.92
2023-01-11T10:42:59.945Z,986.91
2023-01-11T10:43:59.875Z,986.93
2023-01-11T10:44:59.884Z,986.89
2023-01-11T10:45:59.885Z,986.90
2023-01-11T10:46:59.874Z,986.88
2023-01-11T10:47:59.830Z,986.89
2023-01-11T10:48:59.820Z,986.82
2023-01-11T10:49:59.802Z,986.84
2023-01-11T10:50:59.818Z,986.84
2023-01-11T10:51:59.782Z,986.80
2023-01-11T10:52:59.814Z,986.80
2023-01-11T10:54:00.360Z,986.80
2023-01-11T10:54:59.771Z,986.83
2023-01-11T10:55:59.811Z,986.82
2023-01-11T10:57:02.745Z,986.80
2023-01-11T10:58:02.365Z,986.79
2023-01-11T10:58:59.732Z,986.78
2023-01-11T10:59:59.746Z,986.79
2023-01-11T11:00:59.745Z,986.79
2023-01-11T11:01:59.711Z,986.81
2023-01-11T11:02:59.690Z,986.79
2023-01-11T11:03:59.657Z,986.82
2023-01-11T11:04:59.691Z,986.78
2023-01-11T11:05:59.689Z,986.80
2023-01-11T11:06:59.678Z,986.82
2023-01-11T11:07:59.667Z,986.80
2023-01-11T11:08:59.623Z,986.82
2023-01-11T11:09:59.642Z,986.78
2023-01-11T11:10:59.722Z,986.78
2023-01-11T11:11:59.588Z,986.75
2023-01-11T11:12:59.585Z,986.75
2023-01-11T11:13:59.622Z,986.73
2023-01-11T11:14:59.567Z,986.76
2023-01-11T11:15:59.560Z,986.76
2023-01-11T11:16:59.561Z,986.75
2023-01-11T11:17:59.512Z,986.73
2023-01-11T11:18:59.520Z,986.70
2023-01-11T11:19:59.502Z,986.70
2023-01-11T11:20:59.496Z,986.73
2023-01-11T11:21:59.474Z,986.74
2023-01-11T11:22:59.514Z,986.69
2023-01-11T11:23:59.512Z,986.65
2023-01-11T11:24:59.483Z,986.66
2023-01-11T11:25:59.463Z,986.66
2023-01-11T11:26:59.574Z,986.68
2023-01-11T11:27:59.412Z,986.66
2023-01-11T11:28:59.451Z,986.63
2023-01-11T11:29:59.434Z,986.59
2023-01-11T11:30:59.402Z,986.59
2023-01-11T11:31:59.466Z,986.64
2023-01-11T11:32:59.388Z,986.60
2023-01-11T11:33:59.380Z,986.66
2023-01-11T11:34:59.371Z,986.61
2023-01-11T11:35:59.334Z,986.58
2023-01-11T11:36:59.351Z,986.53
2023-01-11T11:37:59.324Z,986.56
2023-01-11T11:38:59.335Z,986.59
2023-01-11T11:39:59.789Z,986.56
2023-01-11T11:40:59.300Z,986.60
2023-01-11T11:41:59.301Z,986.54
2023-01-11T11:42:59.280Z,986.52
2023-01-11T11:43:59.278Z,986.59
2023-01-11T11:44:59.272Z,986.57
2023-01-11T11:45:59.292Z,986.57
2023-01-11T11:46:59.252Z,986.52
2023-01-11T11:47:59.222Z,986.52
2023-01-11T11:48:59.244Z,986.53
2023-01-11T11:49:59.314Z,986.52
2023-01-11T11:50:59.243Z,986.52
2023-01-11T11:51:59.173Z,986.51
2023-01-11T11:52:59.174Z,986.55
2023-01-11T11:53:59.164Z,986.54
2023-01-11T11:54:59.200Z,986.47
2023-01-11T11:55:59.222Z,986.44
2023-01-11T11:56:59.141Z,986.45
2023-01-11T11:57:59.112Z,986.47
2023-01-11T11:58:59.132Z,986.43
2023-01-11T11:59:59.092Z,986.36
2023-01-11T12:00:59.111Z,986.34
2023-01-11T12:01:59.150Z,986.37
2023-01-11T12:02:59.074Z,986.32
2023-01-11T12:03:59.057Z,986.29
2023-01-11T12:04:59.110Z,986.28
2023-01-11T12:05:59.032Z,986.34
2023-01-11T12:06:59.413Z,986.24
2023-01-11T12:07:59.014Z,986.23
2023-01-11T12:08:59.023Z,986.26
2023-01-11T12:09:59.014Z,986.24
2023-01-11T12:10:59.003Z,986.22
2023-01-11T12:11:58.982Z,986.22
2023-01-11T12:12:59.005Z,986.20
2023-01-11T12:13:58.943Z,986.22
2023-01-11T12:14:58.959Z,986.13
2023-01-11T12:15:58.930Z,986.12
2023-01-11T12:16:58.992Z,986.07
2023-01-11T12:17:58.950Z,986.05
2023-01-11T12:18:58.942Z,986.11
2023-01-11T12:19:58.906Z,985.98
2023-01-11T12:20:58.899Z,986.03
2023-01-11T12:21:58.863Z,986.01
2023-01-11T12:22:58.893Z,986.00
2023-01-11T12:23:58.877Z,986.01
2023-01-11T12:24:58.875Z,986.00
2023-01-11T12:25:58.875Z,986.06
2023-01-11T12:26:58.937Z,986.09
2023-01-11T12:27:58.802Z,986.04
2023-01-11T12:28:58.828Z,986.03
2023-01-11T12:29:58.818Z,986.04
2023-01-11T12:30:58.854Z,986.04
2023-01-11T12:31:58.791Z,986.08
2023-01-11T12:32:58.765Z,986.08
2023-01-11T12:33:58.764Z,986.08
2023-01-11T12:34:58.753Z,986.01
2023-01-11T12:35:58.753Z,986.01
2023-01-11T12:36:58.798Z,986.02